Página principal
METAR-TAF:

METAR-TAF

Aeroportos :

Mendoza, Argentina

Aeroporto Internacional Gobernador Francisco Gabrielli

latitude: 32-50S, longitude: 068-47W, altura: 705 m

Observação actual do tempo

O boletim foi feito há 55 minutos, às 11:00 UTC
Vento 2 kt de sudeste
Temperatura 15°C
Humidade 94%
Pressão 1020 hPa
Visibilidade 10 km ou mais
Nuvens dispersasa uma altura de 4000 ft

METAR: SAME 241100Z 14002KT 9999 SCT040 15/14 Q1020

Hora: 08:55 (11:55 UTC)

Previsão

O boletim foi feito há 55 minutos, às 11:00 UTC
Previsão válida de 24 às 12 UTC a 25 às 12 UTC
Vento 5 kt de este
Visibilidade 10 km ou mais
Nuvens dispersasa uma altura de 4000 ft

TAF: SAME 241100Z 2412/2512 09005KT 9999 SCT040 TX24/2420Z TN16/2510Z

Observações e previsões do tempo de mais de 4000 aeroportos (mensagens METAR e TAF).

As estações disponíveis são os pontos amarelos e vermelhos sobre o mapa.

Mova o rato sobre o mapa para ver o nome da estação.

Depois clique no ponto para visualizar as observações e previsões meteorológicas.

Para alterar o mapa : clique nos botões verdes com uma cruz preta para aumentar o zoom; no botão verde com uma pitada de zoom; ou nas setas verdes para mapas adjacentes.


METAR-TAF: